sensor_id;sensor_type;location;lat;lon;timestamp;P1;durP1;ratioP1;P2;durP2;ratioP2
27804;SDS011;15183;51.350;11.102;2023-02-18T00:00:59;7.50;;;2.22;;
27804;SDS011;15183;51.350;11.102;2023-02-18T00:03:27;7.18;;;2.05;;
27804;SDS011;15183;51.350;11.102;2023-02-18T00:05:55;7.18;;;2.42;;
27804;SDS011;15183;51.350;11.102;2023-02-18T00:08:21;6.00;;;1.90;;
27804;SDS011;15183;51.350;11.102;2023-02-18T00:10:48;7.35;;;2.08;;
27804;SDS011;15183;51.350;11.102;2023-02-18T00:13:14;3.13;;;1.40;;
27804;SDS011;15183;51.350;11.102;2023-02-18T00:15:41;6.85;;;1.80;;
27804;SDS011;15183;51.350;11.102;2023-02-18T00:18:07;5.18;;;1.90;;
27804;SDS011;15183;51.350;11.102;2023-02-18T00:20:34;8.20;;;2.90;;
27804;SDS011;15183;51.350;11.102;2023-02-18T00:23:01;5.82;;;1.70;;
27804;SDS011;15183;51.350;11.102;2023-02-18T00:25:28;6.18;;;1.90;;
27804;SDS011;15183;51.350;11.102;2023-02-18T00:27:54;5.63;;;1.65;;
27804;SDS011;15183;51.350;11.102;2023-02-18T00:30:21;5.93;;;2.10;;
27804;SDS011;15183;51.350;11.102;2023-02-18T00:32:47;8.48;;;2.83;;
27804;SDS011;15183;51.350;11.102;2023-02-18T00:35:14;5.43;;;2.00;;
27804;SDS011;15183;51.350;11.102;2023-02-18T00:37:40;4.72;;;1.85;;
27804;SDS011;15183;51.350;11.102;2023-02-18T00:40:07;7.57;;;2.25;;
27804;SDS011;15183;51.350;11.102;2023-02-18T00:42:33;7.38;;;2.35;;
27804;SDS011;15183;51.350;11.102;2023-02-18T00:45:00;6.30;;;2.03;;
27804;SDS011;15183;51.350;11.102;2023-02-18T00:47:26;6.68;;;2.40;;
27804;SDS011;15183;51.350;11.102;2023-02-18T00:49:52;5.68;;;1.73;;
27804;SDS011;15183;51.350;11.102;2023-02-18T00:52:19;8.63;;;1.70;;
27804;SDS011;15183;51.350;11.102;2023-02-18T00:54:45;4.22;;;1.90;;
27804;SDS011;15183;51.350;11.102;2023-02-18T00:57:12;6.45;;;1.65;;
27804;SDS011;15183;51.350;11.102;2023-02-18T00:59:38;6.85;;;2.25;;
27804;SDS011;15183;51.350;11.102;2023-02-18T01:02:04;9.25;;;1.98;;
27804;SDS011;15183;51.350;11.102;2023-02-18T01:04:32;6.32;;;2.15;;
27804;SDS011;15183;51.350;11.102;2023-02-18T01:06:58;6.30;;;1.58;;
27804;SDS011;15183;51.350;11.102;2023-02-18T01:09:25;6.28;;;1.85;;
27804;SDS011;15183;51.350;11.102;2023-02-18T01:11:51;6.25;;;1.95;;
27804;SDS011;15183;51.350;11.102;2023-02-18T01:14:17;7.03;;;1.70;;
27804;SDS011;15183;51.350;11.102;2023-02-18T01:16:44;3.30;;;1.60;;
27804;SDS011;15183;51.350;11.102;2023-02-18T01:19:10;7.18;;;2.20;;
27804;SDS011;15183;51.350;11.102;2023-02-18T01:21:37;6.50;;;3.15;;
27804;SDS011;15183;51.350;11.102;2023-02-18T01:24:03;7.80;;;2.97;;
27804;SDS011;15183;51.350;11.102;2023-02-18T01:26:30;6.03;;;3.47;;
27804;SDS011;15183;51.350;11.102;2023-02-18T01:28:57;7.25;;;3.00;;
27804;SDS011;15183;51.350;11.102;2023-02-18T01:31:23;6.18;;;2.38;;
27804;SDS011;15183;51.350;11.102;2023-02-18T01:33:50;8.88;;;2.50;;
27804;SDS011;15183;51.350;11.102;2023-02-18T01:36:16;8.82;;;3.15;;
27804;SDS011;15183;51.350;11.102;2023-02-18T01:38:43;6.65;;;2.45;;
27804;SDS011;15183;51.350;11.102;2023-02-18T01:41:09;7.03;;;2.70;;
27804;SDS011;15183;51.350;11.102;2023-02-18T01:43:36;7.50;;;3.35;;
27804;SDS011;15183;51.350;11.102;2023-02-18T01:48:52;6.15;;;3.03;;
27804;SDS011;15183;51.350;11.102;2023-02-18T01:51:27;7.63;;;2.47;;
27804;SDS011;15183;51.350;11.102;2023-02-18T01:56:52;8.75;;;3.25;;
27804;SDS011;15183;51.350;11.102;2023-02-18T01:59:26;12.70;;;3.65;;
27804;SDS011;15183;51.350;11.102;2023-02-18T02:02:02;9.15;;;3.03;;
27804;SDS011;15183;51.350;11.102;2023-02-18T02:04:31;6.95;;;2.80;;
27804;SDS011;15183;51.350;11.102;2023-02-18T02:06:58;6.32;;;2.90;;
27804;SDS011;15183;51.350;11.102;2023-02-18T02:09:25;10.98;;;2.95;;
27804;SDS011;15183;51.350;11.102;2023-02-18T02:15:05;7.32;;;2.65;;
27804;SDS011;15183;51.350;11.102;2023-02-18T02:18:04;7.93;;;2.25;;
27804;SDS011;15183;51.350;11.102;2023-02-18T02:24:11;8.65;;;3.85;;
27804;SDS011;15183;51.350;11.102;2023-02-18T02:30:14;6.18;;;2.88;;
27804;SDS011;15183;51.350;11.102;2023-02-18T02:36:12;7.03;;;3.30;;
27804;SDS011;15183;51.350;11.102;2023-02-18T02:38:55;7.70;;;3.28;;
27804;SDS011;15183;51.350;11.102;2023-02-18T02:45:28;7.55;;;3.13;;
27804;SDS011;15183;51.350;11.102;2023-02-18T02:50:37;6.38;;;2.92;;
27804;SDS011;15183;51.350;11.102;2023-02-18T02:54:08;8.65;;;3.78;;
27804;SDS011;15183;51.350;11.102;2023-02-18T02:56:38;6.07;;;3.72;;
27804;SDS011;15183;51.350;11.102;2023-02-18T02:59:06;7.53;;;3.13;;
27804;SDS011;15183;51.350;11.102;2023-02-18T03:04:58;7.55;;;3.65;;
27804;SDS011;15183;51.350;11.102;2023-02-18T03:16:25;8.18;;;3.92;;
27804;SDS011;15183;51.350;11.102;2023-02-18T03:19:20;6.07;;;3.67;;
27804;SDS011;15183;51.350;11.102;2023-02-18T03:21:57;9.73;;;4.95;;
27804;SDS011;15183;51.350;11.102;2023-02-18T03:25:06;7.55;;;3.90;;
27804;SDS011;15183;51.350;11.102;2023-02-18T03:30:28;7.93;;;3.60;;
27804;SDS011;15183;51.350;11.102;2023-02-18T03:33:04;10.55;;;3.40;;
27804;SDS011;15183;51.350;11.102;2023-02-18T03:35:35;5.93;;;3.67;;
27804;SDS011;15183;51.350;11.102;2023-02-18T03:38:08;9.18;;;4.80;;
27804;SDS011;15183;51.350;11.102;2023-02-18T03:41:03;10.00;;;3.40;;
27804;SDS011;15183;51.350;11.102;2023-02-18T03:43:31;8.07;;;3.58;;
27804;SDS011;15183;51.350;11.102;2023-02-18T03:45:58;8.77;;;4.18;;
27804;SDS011;15183;51.350;11.102;2023-02-18T03:48:25;11.10;;;4.20;;
27804;SDS011;15183;51.350;11.102;2023-02-18T03:50:51;9.68;;;4.60;;
27804;SDS011;15183;51.350;11.102;2023-02-18T03:53:18;10.65;;;4.43;;
27804;SDS011;15183;51.350;11.102;2023-02-18T03:55:44;12.98;;;6.22;;
27804;SDS011;15183;51.350;11.102;2023-02-18T03:58:10;9.05;;;6.18;;
27804;SDS011;15183;51.350;11.102;2023-02-18T04:00:37;9.60;;;5.82;;
27804;SDS011;15183;51.350;11.102;2023-02-18T04:03:03;13.23;;;5.70;;
27804;SDS011;15183;51.350;11.102;2023-02-18T04:05:30;10.02;;;6.72;;
27804;SDS011;15183;51.350;11.102;2023-02-18T04:07:56;11.77;;;6.93;;
27804;SDS011;15183;51.350;11.102;2023-02-18T04:10:23;14.10;;;8.52;;
27804;SDS011;15183;51.350;11.102;2023-02-18T04:12:49;12.90;;;8.13;;
27804;SDS011;15183;51.350;11.102;2023-02-18T04:15:16;17.83;;;11.43;;
27804;SDS011;15183;51.350;11.102;2023-02-18T04:17:42;12.52;;;8.27;;
27804;SDS011;15183;51.350;11.102;2023-02-18T04:20:09;13.00;;;8.00;;
27804;SDS011;15183;51.350;11.102;2023-02-18T04:22:36;12.43;;;7.72;;
27804;SDS011;15183;51.350;11.102;2023-02-18T04:25:02;10.25;;;7.20;;
27804;SDS011;15183;51.350;11.102;2023-02-18T04:27:28;9.68;;;7.72;;
27804;SDS011;15183;51.350;11.102;2023-02-18T04:29:55;12.18;;;7.10;;
27804;SDS011;15183;51.350;11.102;2023-02-18T04:32:21;8.73;;;6.68;;
27804;SDS011;15183;51.350;11.102;2023-02-18T04:34:48;9.88;;;7.32;;
27804;SDS011;15183;51.350;11.102;2023-02-18T04:37:14;10.60;;;6.53;;
27804;SDS011;15183;51.350;11.102;2023-02-18T04:39:41;8.27;;;5.95;;
27804;SDS011;15183;51.350;11.102;2023-02-18T04:42:07;7.55;;;5.97;;
27804;SDS011;15183;51.350;11.102;2023-02-18T04:44:35;6.93;;;5.72;;
27804;SDS011;15183;51.350;11.102;2023-02-18T04:47:05;9.38;;;6.05;;
27804;SDS011;15183;51.350;11.102;2023-02-18T04:49:32;9.75;;;6.35;;
27804;SDS011;15183;51.350;11.102;2023-02-18T04:51:59;8.25;;;5.72;;
27804;SDS011;15183;51.350;11.102;2023-02-18T04:54:25;7.15;;;5.57;;
27804;SDS011;15183;51.350;11.102;2023-02-18T04:56:52;9.50;;;5.65;;
27804;SDS011;15183;51.350;11.102;2023-02-18T04:59:18;5.93;;;5.07;;
27804;SDS011;15183;51.350;11.102;2023-02-18T05:01:45;6.95;;;5.20;;
27804;SDS011;15183;51.350;11.102;2023-02-18T05:04:11;6.15;;;5.13;;
27804;SDS011;15183;51.350;11.102;2023-02-18T05:06:38;10.35;;;5.50;;
27804;SDS011;15183;51.350;11.102;2023-02-18T05:09:05;5.65;;;4.50;;
27804;SDS011;15183;51.350;11.102;2023-02-18T05:11:31;6.20;;;4.68;;
27804;SDS011;15183;51.350;11.102;2023-02-18T05:13:58;5.93;;;4.40;;
27804;SDS011;15183;51.350;11.102;2023-02-18T05:16:24;6.40;;;4.97;;
27804;SDS011;15183;51.350;11.102;2023-02-18T05:18:51;6.65;;;5.10;;
27804;SDS011;15183;51.350;11.102;2023-02-18T05:21:17;5.55;;;4.80;;
27804;SDS011;15183;51.350;11.102;2023-02-18T05:23:44;7.00;;;5.10;;
27804;SDS011;15183;51.350;11.102;2023-02-18T05:26:10;5.72;;;5.00;;
27804;SDS011;15183;51.350;11.102;2023-02-18T05:28:36;6.57;;;5.07;;
27804;SDS011;15183;51.350;11.102;2023-02-18T05:31:03;6.93;;;5.35;;
27804;SDS011;15183;51.350;11.102;2023-02-18T05:33:29;7.25;;;5.38;;
27804;SDS011;15183;51.350;11.102;2023-02-18T05:35:56;7.53;;;5.72;;
27804;SDS011;15183;51.350;11.102;2023-02-18T05:38:22;7.13;;;5.55;;
27804;SDS011;15183;51.350;11.102;2023-02-18T05:40:49;6.97;;;5.07;;
27804;SDS011;15183;51.350;11.102;2023-02-18T05:43:15;7.05;;;5.47;;
27804;SDS011;15183;51.350;11.102;2023-02-18T05:45:42;7.65;;;5.68;;
27804;SDS011;15183;51.350;11.102;2023-02-18T05:48:08;6.63;;;5.28;;
27804;SDS011;15183;51.350;11.102;2023-02-18T05:50:34;5.65;;;5.05;;
27804;SDS011;15183;51.350;11.102;2023-02-18T05:53:01;6.72;;;5.15;;
27804;SDS011;15183;51.350;11.102;2023-02-18T05:55:28;5.45;;;4.88;;
27804;SDS011;15183;51.350;11.102;2023-02-18T05:57:54;6.35;;;5.65;;
27804;SDS011;15183;51.350;11.102;2023-02-18T06:00:20;6.57;;;5.22;;
27804;SDS011;15183;51.350;11.102;2023-02-18T06:02:47;7.00;;;5.47;;
27804;SDS011;15183;51.350;11.102;2023-02-18T06:05:13;7.07;;;5.43;;
27804;SDS011;15183;51.350;11.102;2023-02-18T06:07:40;8.50;;;5.45;;
27804;SDS011;15183;51.350;11.102;2023-02-18T06:10:06;6.93;;;5.28;;
27804;SDS011;15183;51.350;11.102;2023-02-18T06:12:33;7.38;;;5.50;;
27804;SDS011;15183;51.350;11.102;2023-02-18T06:14:59;8.90;;;5.40;;
27804;SDS011;15183;51.350;11.102;2023-02-18T06:17:26;6.53;;;5.07;;
27804;SDS011;15183;51.350;11.102;2023-02-18T06:19:52;5.18;;;4.68;;
27804;SDS011;15183;51.350;11.102;2023-02-18T06:22:18;6.18;;;4.78;;
27804;SDS011;15183;51.350;11.102;2023-02-18T06:24:45;5.97;;;4.65;;
27804;SDS011;15183;51.350;11.102;2023-02-18T06:27:11;6.13;;;5.03;;
27804;SDS011;15183;51.350;11.102;2023-02-18T06:29:38;6.28;;;4.63;;
27804;SDS011;15183;51.350;11.102;2023-02-18T06:32:04;5.97;;;4.70;;
27804;SDS011;15183;51.350;11.102;2023-02-18T06:34:31;12.00;;;7.70;;
27804;SDS011;15183;51.350;11.102;2023-02-18T06:36:57;6.55;;;5.63;;
27804;SDS011;15183;51.350;11.102;2023-02-18T06:39:23;8.15;;;6.15;;
27804;SDS011;15183;51.350;11.102;2023-02-18T06:41:50;6.65;;;5.15;;
27804;SDS011;15183;51.350;11.102;2023-02-18T06:44:16;7.70;;;4.97;;
27804;SDS011;15183;51.350;11.102;2023-02-18T06:46:43;6.07;;;4.32;;
27804;SDS011;15183;51.350;11.102;2023-02-18T06:49:10;7.78;;;4.88;;
27804;SDS011;15183;51.350;11.102;2023-02-18T06:51:36;4.50;;;3.67;;
27804;SDS011;15183;51.350;11.102;2023-02-18T06:54:02;4.90;;;3.90;;
27804;SDS011;15183;51.350;11.102;2023-02-18T06:56:30;4.20;;;3.75;;
27804;SDS011;15183;51.350;11.102;2023-02-18T06:58:56;4.78;;;3.20;;
27804;SDS011;15183;51.350;11.102;2023-02-18T07:01:23;4.47;;;3.30;;
27804;SDS011;15183;51.350;11.102;2023-02-18T07:03:51;4.05;;;3.22;;
27804;SDS011;15183;51.350;11.102;2023-02-18T07:06:17;4.25;;;3.30;;
27804;SDS011;15183;51.350;11.102;2023-02-18T07:08:43;4.40;;;3.10;;
27804;SDS011;15183;51.350;11.102;2023-02-18T07:11:10;4.25;;;3.30;;
27804;SDS011;15183;51.350;11.102;2023-02-18T07:13:36;2.83;;;2.63;;
27804;SDS011;15183;51.350;11.102;2023-02-18T07:16:03;3.50;;;3.20;;
27804;SDS011;15183;51.350;11.102;2023-02-18T07:18:29;3.40;;;2.70;;
27804;SDS011;15183;51.350;11.102;2023-02-18T07:20:56;3.65;;;2.85;;
27804;SDS011;15183;51.350;11.102;2023-02-18T07:23:22;4.28;;;2.38;;
27804;SDS011;15183;51.350;11.102;2023-02-18T07:25:49;2.78;;;2.20;;
27804;SDS011;15183;51.350;11.102;2023-02-18T07:28:15;2.75;;;2.10;;
27804;SDS011;15183;51.350;11.102;2023-02-18T07:30:41;2.35;;;2.15;;
27804;SDS011;15183;51.350;11.102;2023-02-18T07:33:08;3.05;;;2.13;;
27804;SDS011;15183;51.350;11.102;2023-02-18T07:35:34;2.63;;;2.40;;
27804;SDS011;15183;51.350;11.102;2023-02-18T07:38:01;2.47;;;1.80;;
27804;SDS011;15183;51.350;11.102;2023-02-18T07:40:28;1.63;;;1.48;;
27804;SDS011;15183;51.350;11.102;2023-02-18T07:42:55;2.10;;;1.90;;
27804;SDS011;15183;51.350;11.102;2023-02-18T07:45:21;1.50;;;1.40;;
27804;SDS011;15183;51.350;11.102;2023-02-18T07:47:48;1.67;;;1.38;;
27804;SDS011;15183;51.350;11.102;2023-02-18T07:50:14;1.48;;;1.38;;
27804;SDS011;15183;51.350;11.102;2023-02-18T07:52:40;1.92;;;1.20;;
27804;SDS011;15183;51.350;11.102;2023-02-18T07:55:07;1.20;;;1.10;;
27804;SDS011;15183;51.350;11.102;2023-02-18T07:57:33;2.13;;;1.55;;
27804;SDS011;15183;51.350;11.102;2023-02-18T08:00:20;1.58;;;1.38;;
27804;SDS011;15183;51.350;11.102;2023-02-18T08:02:46;1.20;;;1.10;;
27804;SDS011;15183;51.350;11.102;2023-02-18T08:05:13;1.88;;;1.25;;
27804;SDS011;15183;51.350;11.102;2023-02-18T08:07:39;3.15;;;1.10;;
27804;SDS011;15183;51.350;11.102;2023-02-18T08:10:06;1.88;;;1.30;;
27804;SDS011;15183;51.350;11.102;2023-02-18T08:12:32;2.20;;;1.55;;
27804;SDS011;15183;51.350;11.102;2023-02-18T08:14:58;1.48;;;1.38;;
27804;SDS011;15183;51.350;11.102;2023-02-18T08:17:25;1.08;;;0.80;;
27804;SDS011;15183;51.350;11.102;2023-02-18T08:19:51;1.73;;;1.30;;
27804;SDS011;15183;51.350;11.102;2023-02-18T08:22:19;1.67;;;1.58;;
27804;SDS011;15183;51.350;11.102;2023-02-18T08:24:45;1.60;;;1.50;;
27804;SDS011;15183;51.350;11.102;2023-02-18T08:27:12;1.80;;;1.05;;
27804;SDS011;15183;51.350;11.102;2023-02-18T08:29:39;0.90;;;0.90;;
27804;SDS011;15183;51.350;11.102;2023-02-18T08:32:05;1.55;;;1.00;;
27804;SDS011;15183;51.350;11.102;2023-02-18T08:34:32;1.70;;;1.48;;
27804;SDS011;15183;51.350;11.102;2023-02-18T08:37:00;1.30;;;1.20;;
27804;SDS011;15183;51.350;11.102;2023-02-18T08:39:27;1.25;;;1.15;;
27804;SDS011;15183;51.350;11.102;2023-02-18T08:41:53;1.77;;;1.48;;
27804;SDS011;15183;51.350;11.102;2023-02-18T08:44:21;1.20;;;1.02;;
27804;SDS011;15183;51.350;11.102;2023-02-18T08:46:47;1.50;;;0.98;;
27804;SDS011;15183;51.350;11.102;2023-02-18T08:49:14;1.83;;;1.27;;
27804;SDS011;15183;51.350;11.102;2023-02-18T08:51:41;1.40;;;1.30;;
27804;SDS011;15183;51.350;11.102;2023-02-18T08:54:07;1.40;;;1.10;;
27804;SDS011;15183;51.350;11.102;2023-02-18T08:56:34;1.67;;;1.30;;
27804;SDS011;15183;51.350;11.102;2023-02-18T08:59:00;3.67;;;1.92;;
27804;SDS011;15183;51.350;11.102;2023-02-18T09:01:27;4.60;;;1.90;;
27804;SDS011;15183;51.350;11.102;2023-02-18T09:03:53;2.55;;;2.15;;
27804;SDS011;15183;51.350;11.102;2023-02-18T09:06:19;5.32;;;3.47;;
27804;SDS011;15183;51.350;11.102;2023-02-18T09:08:46;1.80;;;1.70;;
27804;SDS011;15183;51.350;11.102;2023-02-18T09:11:13;3.08;;;2.67;;
27804;SDS011;15183;51.350;11.102;2023-02-18T09:13:39;2.22;;;1.77;;
27804;SDS011;15183;51.350;11.102;2023-02-18T09:16:16;2.03;;;1.58;;
27804;SDS011;15183;51.350;11.102;2023-02-18T09:18:43;2.67;;;1.70;;
27804;SDS011;15183;51.350;11.102;2023-02-18T09:21:12;1.63;;;1.10;;
27804;SDS011;15183;51.350;11.102;2023-02-18T09:23:43;2.28;;;1.55;;
27804;SDS011;15183;51.350;11.102;2023-02-18T09:26:12;2.00;;;1.80;;
27804;SDS011;15183;51.350;11.102;2023-02-18T09:28:40;6.13;;;3.35;;
27804;SDS011;15183;51.350;11.102;2023-02-18T09:31:08;7.18;;;3.42;;
27804;SDS011;15183;51.350;11.102;2023-02-18T09:33:39;3.67;;;2.63;;
27804;SDS011;15183;51.350;11.102;2023-02-18T09:36:09;3.45;;;2.42;;
27804;SDS011;15183;51.350;11.102;2023-02-18T09:38:35;4.22;;;3.28;;
27804;SDS011;15183;51.350;11.102;2023-02-18T09:41:03;5.95;;;1.90;;
27804;SDS011;15183;51.350;11.102;2023-02-18T09:43:35;2.85;;;2.20;;
27804;SDS011;15183;51.350;11.102;2023-02-18T09:46:22;3.10;;;2.30;;
27804;SDS011;15183;51.350;11.102;2023-02-18T09:49:05;3.13;;;2.22;;
27804;SDS011;15183;51.350;11.102;2023-02-18T09:51:44;4.38;;;3.13;;
27804;SDS011;15183;51.350;11.102;2023-02-18T09:54:12;3.20;;;2.20;;
27804;SDS011;15183;51.350;11.102;2023-02-18T09:56:42;3.00;;;2.10;;
27804;SDS011;15183;51.350;11.102;2023-02-18T09:59:18;2.40;;;1.98;;
27804;SDS011;15183;51.350;11.102;2023-02-18T10:01:49;1.58;;;1.48;;
27804;SDS011;15183;51.350;11.102;2023-02-18T10:04:24;2.10;;;1.70;;
27804;SDS011;15183;51.350;11.102;2023-02-18T10:06:56;2.35;;;1.70;;
27804;SDS011;15183;51.350;11.102;2023-02-18T10:09:27;2.63;;;1.33;;
27804;SDS011;15183;51.350;11.102;2023-02-18T10:12:10;3.63;;;1.80;;
27804;SDS011;15183;51.350;11.102;2023-02-18T10:14:42;3.40;;;2.15;;
27804;SDS011;15183;51.350;11.102;2023-02-18T10:17:27;4.90;;;3.28;;
27804;SDS011;15183;51.350;11.102;2023-02-18T10:19:57;2.20;;;1.90;;
27804;SDS011;15183;51.350;11.102;2023-02-18T10:22:25;3.75;;;1.60;;
27804;SDS011;15183;51.350;11.102;2023-02-18T10:24:59;3.75;;;1.70;;
27804;SDS011;15183;51.350;11.102;2023-02-18T10:27:30;2.65;;;2.05;;
27804;SDS011;15183;51.350;11.102;2023-02-18T10:33:31;2.17;;;1.55;;
27804;SDS011;15183;51.350;11.102;2023-02-18T10:42:25;1.60;;;1.50;;
27804;SDS011;15183;51.350;11.102;2023-02-18T10:45:14;2.15;;;1.50;;
27804;SDS011;15183;51.350;11.102;2023-02-18T10:50:44;1.85;;;1.40;;
27804;SDS011;15183;51.350;11.102;2023-02-18T10:53:27;3.63;;;2.03;;
27804;SDS011;15183;51.350;11.102;2023-02-18T10:55:56;3.15;;;1.98;;
27804;SDS011;15183;51.350;11.102;2023-02-18T10:58:25;2.38;;;1.52;;
27804;SDS011;15183;51.350;11.102;2023-02-18T11:01:02;2.45;;;1.60;;
27804;SDS011;15183;51.350;11.102;2023-02-18T11:03:40;3.80;;;1.88;;
27804;SDS011;15183;51.350;11.102;2023-02-18T11:06:15;6.82;;;3.25;;
27804;SDS011;15183;51.350;11.102;2023-02-18T11:08:44;3.60;;;2.28;;
27804;SDS011;15183;51.350;11.102;2023-02-18T11:11:13;2.03;;;1.70;;
27804;SDS011;15183;51.350;11.102;2023-02-18T11:13:51;2.43;;;1.57;;
27804;SDS011;15183;51.350;11.102;2023-02-18T11:16:35;2.63;;;2.17;;
27804;SDS011;15183;51.350;11.102;2023-02-18T11:19:29;1.85;;;1.50;;
27804;SDS011;15183;51.350;11.102;2023-02-18T11:22:18;1.10;;;1.05;;
27804;SDS011;15183;51.350;11.102;2023-02-18T11:24:54;2.65;;;1.50;;
27804;SDS011;15183;51.350;11.102;2023-02-18T11:30:05;0.90;;;0.90;;
27804;SDS011;15183;51.350;11.102;2023-02-18T11:33:17;1.70;;;1.20;;
27804;SDS011;15183;51.350;11.102;2023-02-18T11:36:29;2.30;;;1.85;;
27804;SDS011;15183;51.350;11.102;2023-02-18T11:38:58;2.85;;;2.25;;
27804;SDS011;15183;51.350;11.102;2023-02-18T11:41:41;1.77;;;1.60;;
27804;SDS011;15183;51.350;11.102;2023-02-18T11:44:20;2.78;;;2.08;;
27804;SDS011;15183;51.350;11.102;2023-02-18T11:46:55;2.13;;;1.80;;
27804;SDS011;15183;51.350;11.102;2023-02-18T11:49:32;2.67;;;2.03;;
27804;SDS011;15183;51.350;11.102;2023-02-18T11:52:04;2.63;;;1.80;;
27804;SDS011;15183;51.350;11.102;2023-02-18T11:54:58;2.80;;;2.08;;
27804;SDS011;15183;51.350;11.102;2023-02-18T11:57:31;1.38;;;1.23;;
27804;SDS011;15183;51.350;11.102;2023-02-18T12:00:02;1.88;;;1.77;;
27804;SDS011;15183;51.350;11.102;2023-02-18T12:02:40;1.77;;;1.50;;
27804;SDS011;15183;51.350;11.102;2023-02-18T12:05:10;1.67;;;1.58;;
27804;SDS011;15183;51.350;11.102;2023-02-18T12:10:25;1.58;;;1.48;;
27804;SDS011;15183;51.350;11.102;2023-02-18T12:13:15;1.88;;;1.35;;
27804;SDS011;15183;51.350;11.102;2023-02-18T12:16:16;1.95;;;1.67;;
27804;SDS011;15183;51.350;11.102;2023-02-18T12:21:37;4.72;;;2.75;;
27804;SDS011;15183;51.350;11.102;2023-02-18T12:33:18;4.60;;;2.58;;
27804;SDS011;15183;51.350;11.102;2023-02-18T12:39:10;3.22;;;2.38;;
27804;SDS011;15183;51.350;11.102;2023-02-18T12:44:57;4.80;;;2.05;;
27804;SDS011;15183;51.350;11.102;2023-02-18T12:50:35;1.92;;;1.52;;
27804;SDS011;15183;51.350;11.102;2023-02-18T13:01:48;2.30;;;1.88;;
27804;SDS011;15183;51.350;11.102;2023-02-18T13:10:20;2.45;;;1.80;;
27804;SDS011;15183;51.350;11.102;2023-02-18T13:15:36;4.07;;;2.25;;
27804;SDS011;15183;51.350;11.102;2023-02-18T13:18:15;6.78;;;2.55;;
27804;SDS011;15183;51.350;11.102;2023-02-18T13:21:08;3.60;;;1.75;;
27804;SDS011;15183;51.350;11.102;2023-02-18T13:26:22;2.67;;;1.70;;
27804;SDS011;15183;51.350;11.102;2023-02-18T13:32:06;4.53;;;2.17;;
27804;SDS011;15183;51.350;11.102;2023-02-18T13:37:45;1.63;;;1.38;;
27804;SDS011;15183;51.350;11.102;2023-02-18T13:40:38;3.58;;;1.60;;
27804;SDS011;15183;51.350;11.102;2023-02-18T13:46:02;5.47;;;2.40;;
27804;SDS011;15183;51.350;11.102;2023-02-18T13:48:43;4.85;;;2.30;;
27804;SDS011;15183;51.350;11.102;2023-02-18T13:51:28;3.25;;;2.80;;
27804;SDS011;15183;51.350;11.102;2023-02-18T13:54:15;2.20;;;1.45;;
27804;SDS011;15183;51.350;11.102;2023-02-18T14:12:42;4.65;;;2.20;;
27804;SDS011;15183;51.350;11.102;2023-02-18T14:17:49;3.20;;;2.20;;
27804;SDS011;15183;51.350;11.102;2023-02-18T14:20:29;3.25;;;2.42;;
27804;SDS011;15183;51.350;11.102;2023-02-18T14:22:58;4.18;;;3.28;;
27804;SDS011;15183;51.350;11.102;2023-02-18T14:25:35;5.90;;;3.80;;
27804;SDS011;15183;51.350;11.102;2023-02-18T14:34:17;8.95;;;4.47;;
27804;SDS011;15183;51.350;11.102;2023-02-18T14:40:16;5.90;;;3.30;;
27804;SDS011;15183;51.350;11.102;2023-02-18T14:48:52;4.03;;;2.83;;
27804;SDS011;15183;51.350;11.102;2023-02-18T14:52:25;3.95;;;2.50;;
27804;SDS011;15183;51.350;11.102;2023-02-18T14:55:13;3.20;;;2.20;;
27804;SDS011;15183;51.350;11.102;2023-02-18T14:57:59;3.85;;;2.50;;
27804;SDS011;15183;51.350;11.102;2023-02-18T15:01:19;3.25;;;2.42;;
27804;SDS011;15183;51.350;11.102;2023-02-18T15:03:52;4.90;;;3.60;;
27804;SDS011;15183;51.350;11.102;2023-02-18T15:06:36;3.78;;;2.33;;
27804;SDS011;15183;51.350;11.102;2023-02-18T15:09:19;3.85;;;2.33;;
27804;SDS011;15183;51.350;11.102;2023-02-18T15:11:57;3.00;;;2.42;;
27804;SDS011;15183;51.350;11.102;2023-02-18T15:14:30;3.10;;;2.58;;
27804;SDS011;15183;51.350;11.102;2023-02-18T15:17:05;3.33;;;2.60;;
27804;SDS011;15183;51.350;11.102;2023-02-18T15:19:42;3.90;;;2.08;;
27804;SDS011;15183;51.350;11.102;2023-02-18T15:22:25;3.97;;;2.67;;
27804;SDS011;15183;51.350;11.102;2023-02-18T15:24:55;2.78;;;2.17;;
27804;SDS011;15183;51.350;11.102;2023-02-18T15:27:29;2.40;;;1.70;;
27804;SDS011;15183;51.350;11.102;2023-02-18T15:30:03;2.75;;;2.38;;
27804;SDS011;15183;51.350;11.102;2023-02-18T15:33:01;3.60;;;2.08;;
27804;SDS011;15183;51.350;11.102;2023-02-18T15:35:35;3.28;;;2.00;;
27804;SDS011;15183;51.350;11.102;2023-02-18T15:38:19;2.25;;;1.58;;
27804;SDS011;15183;51.350;11.102;2023-02-18T15:40:46;2.35;;;1.65;;
27804;SDS011;15183;51.350;11.102;2023-02-18T15:43:18;2.83;;;2.00;;
27804;SDS011;15183;51.350;11.102;2023-02-18T15:45:49;2.60;;;1.67;;
27804;SDS011;15183;51.350;11.102;2023-02-18T15:48:20;1.67;;;1.50;;
27804;SDS011;15183;51.350;11.102;2023-02-18T15:51:05;1.90;;;1.45;;
27804;SDS011;15183;51.350;11.102;2023-02-18T15:53:38;4.45;;;2.35;;
27804;SDS011;15183;51.350;11.102;2023-02-18T15:56:11;2.22;;;2.00;;
27804;SDS011;15183;51.350;11.102;2023-02-18T15:58:49;4.05;;;2.35;;
27804;SDS011;15183;51.350;11.102;2023-02-18T16:01:33;1.35;;;1.25;;
27804;SDS011;15183;51.350;11.102;2023-02-18T16:04:00;1.23;;;1.13;;
27804;SDS011;15183;51.350;11.102;2023-02-18T16:06:27;1.88;;;1.48;;
27804;SDS011;15183;51.350;11.102;2023-02-18T16:11:46;2.28;;;1.48;;
27804;SDS011;15183;51.350;11.102;2023-02-18T16:14:27;2.00;;;1.80;;
27804;SDS011;15183;51.350;11.102;2023-02-18T16:17:13;2.08;;;1.40;;
27804;SDS011;15183;51.350;11.102;2023-02-18T16:19:51;4.15;;;1.70;;
27804;SDS011;15183;51.350;11.102;2023-02-18T16:22:44;2.55;;;1.30;;
27804;SDS011;15183;51.350;11.102;2023-02-18T16:25:16;3.40;;;1.58;;
27804;SDS011;15183;51.350;11.102;2023-02-18T16:30:30;1.55;;;1.25;;
27804;SDS011;15183;51.350;11.102;2023-02-18T16:32:59;2.28;;;1.33;;
27804;SDS011;15183;51.350;11.102;2023-02-18T16:35:26;2.33;;;1.27;;
27804;SDS011;15183;51.350;11.102;2023-02-18T16:37:55;2.45;;;1.33;;
27804;SDS011;15183;51.350;11.102;2023-02-18T16:40:28;1.45;;;1.15;;
27804;SDS011;15183;51.350;11.102;2023-02-18T16:43:13;2.25;;;1.10;;
27804;SDS011;15183;51.350;11.102;2023-02-18T16:45:49;1.80;;;1.17;;
27804;SDS011;15183;51.350;11.102;2023-02-18T16:51:51;1.27;;;0.98;;
27804;SDS011;15183;51.350;11.102;2023-02-18T16:53:57;1.55;;;1.08;;
27804;SDS011;15183;51.350;11.102;2023-02-18T16:56:24;3.22;;;1.50;;
27804;SDS011;15183;51.350;11.102;2023-02-18T16:58:55;2.08;;;1.40;;
27804;SDS011;15183;51.350;11.102;2023-02-18T17:01:26;1.20;;;1.10;;
27804;SDS011;15183;51.350;11.102;2023-02-18T17:04:03;1.75;;;1.23;;
27804;SDS011;15183;51.350;11.102;2023-02-18T17:06:30;1.65;;;1.40;;
27804;SDS011;15183;51.350;11.102;2023-02-18T17:08:58;2.72;;;1.42;;
27804;SDS011;15183;51.350;11.102;2023-02-18T17:11:29;1.35;;;1.17;;
27804;SDS011;15183;51.350;11.102;2023-02-18T17:13:58;1.33;;;1.23;;
27804;SDS011;15183;51.350;11.102;2023-02-18T17:16:29;2.28;;;1.45;;
27804;SDS011;15183;51.350;11.102;2023-02-18T17:18:56;1.30;;;1.20;;
27804;SDS011;15183;51.350;11.102;2023-02-18T17:21:23;2.20;;;1.20;;
27804;SDS011;15183;51.350;11.102;2023-02-18T17:23:50;0.90;;;0.90;;
27804;SDS011;15183;51.350;11.102;2023-02-18T17:26:23;1.15;;;1.00;;
27804;SDS011;15183;51.350;11.102;2023-02-18T17:28:53;1.75;;;0.90;;
27804;SDS011;15183;51.350;11.102;2023-02-18T17:31:28;1.23;;;1.08;;